Aeroporto :
LOGIN :

Iscrizione | Disclaimer

   EN    FR    IT 

 










Sommario :    VFR   VFR Marginale   IFR   IFR Intensivo   IFR Molto Intensivo
Visibilità : 
Base nubi : 
>= 8 km
>= 3000ft
5 / 8 km
1000 / 3000 ft
1500m / 5 km
500 / 1000 ft
800 / 1500m
200 / 500 ft
< 800m
< 200 ft
Simboli :   Temporali  Nebbia  Neve Forte  Precipitazioni Forti  Vento > 20 kt
SIGMETs :   Varie  Temporali  Ghiacco  Turbolenza  Onda orograficha  Ceneri Vulcaniche






- Altitudine del aeroporto : 348 ft
- Codice IATA : STN


EGSS - London Stansted

ULTIMO METAR :
  • 240750Z AUTO 22009KT 4000 BR OVC003 13/13 Q1016

METARs OBSOLETI :
  • 240720Z AUTO 22007KT 4700 BR OVC004 13/13 Q1016
  • 240650Z AUTO 23007KT 5000 BR OVC003 13/12 Q1016
  • 240620Z AUTO 22008KT 3700 BR OVC003 12/12 Q1016
  • 240550Z AUTO 23008KT 3300 BR OVC002 12/12 Q1016
  • 240520Z AUTO 23005KT 2600 BR OVC002 12/12 Q1016

TAF TAF EGSS
Valido dal 24 a 06 ore il 25 a 12 ore UTC


240500Z 2406/2512 25005KT 2500 BR BKN001
TEMPO 2406/2407 SCT001
PROB30
TEMPO 2406/2407 0300 FG
BECMG 2407/2410 9999 NSW FEW040
PROB30 2503/2508 4000 BR
ATIS : +44 1279 669 325



MetMap, La meteo Aeronautica in un colpo d'occhio ! - Copyright ORBIFLY Dicembre 2007 - Disclaimer

ORBIFLY MET'MAP TEAM :

Programmazione e sviluppo : Alexandra Zaïnal
Concezione : Baudouin d'Aumeries
Aiuto per la programmazione : Marc-Olivier Méhu
Supporto tecnico e logistico : Manuel Goepfert
Aiuto per la traduzione : Arnaldo La Scala

Contatto : metmap@orbifly.com




FONTI E CREDITI :

   NOAA